createdAt,value
2019-01-27T00:01:19.024Z,100405.31
2019-01-27T00:02:53.140Z,100403.59
2019-01-27T00:04:27.135Z,100401.56
2019-01-27T00:06:01.067Z,100397.23
2019-01-27T00:07:35.045Z,100402.23
2019-01-27T00:09:09.262Z,100399.56
2019-01-27T00:10:43.463Z,100393.91
2019-01-27T00:12:18.365Z,100393.23
2019-01-27T00:13:52.186Z,100391.70
2019-01-27T00:15:26.176Z,100393.20
2019-01-27T00:16:59.999Z,100386.25
2019-01-27T00:18:34.112Z,100384.91
2019-01-27T00:20:08.106Z,100387.61
2019-01-27T00:21:42.408Z,100389.63
2019-01-27T00:23:16.812Z,100388.30
2019-01-27T00:24:50.840Z,100387.33
2019-01-27T00:26:24.951Z,100386.66
2019-01-27T00:27:58.876Z,100385.35
2019-01-27T00:29:32.953Z,100381.84
2019-01-27T00:31:06.720Z,100380.05
2019-01-27T00:32:40.761Z,100386.70
2019-01-27T00:34:14.671Z,100386.39
2019-01-27T00:35:48.774Z,100389.05
2019-01-27T00:37:23.782Z,100389.71
2019-01-27T00:38:57.635Z,100387.39
2019-01-27T00:40:33.526Z,100393.39
2019-01-27T00:42:06.423Z,100390.05
2019-01-27T00:43:40.335Z,100399.24
2019-01-27T00:45:14.186Z,100399.41
2019-01-27T00:46:47.950Z,100394.07
2019-01-27T00:48:21.969Z,100396.23
2019-01-27T00:49:55.635Z,100396.06
2019-01-27T00:51:29.688Z,100393.41
2019-01-27T00:53:04.456Z,100391.39
2019-01-27T00:54:38.764Z,100395.25
2019-01-27T00:56:14.514Z,100391.39
2019-01-27T00:57:48.333Z,100389.22
2019-01-27T00:59:21.380Z,100384.39
2019-01-27T01:00:55.397Z,100389.06
2019-01-27T01:02:30.107Z,100387.73
2019-01-27T01:04:04.083Z,100387.72
2019-01-27T01:05:38.390Z,100385.05
2019-01-27T01:07:12.516Z,100389.20
2019-01-27T01:08:46.524Z,100390.85
2019-01-27T01:10:21.386Z,100387.14
2019-01-27T01:11:55.411Z,100384.58
2019-01-27T01:13:29.840Z,100381.72
2019-01-27T01:15:03.910Z,100380.56
2019-01-27T01:16:37.538Z,100388.84
2019-01-27T01:18:11.685Z,100394.17
2019-01-27T01:19:45.810Z,100378.86
2019-01-27T01:21:19.720Z,100385.31
2019-01-27T01:22:54.690Z,100376.78
2019-01-27T01:24:28.950Z,100377.52
2019-01-27T01:26:03.199Z,100373.16
2019-01-27T01:27:37.535Z,100373.54
2019-01-27T01:29:10.362Z,100372.58
2019-01-27T01:30:46.586Z,100373.79
2019-01-27T01:32:20.573Z,100375.63
2019-01-27T01:33:54.388Z,100380.11
2019-01-27T01:35:30.361Z,100378.32
2019-01-27T01:37:04.143Z,100379.16
2019-01-27T01:38:38.062Z,100378.19
2019-01-27T01:40:11.938Z,100379.53
2019-01-27T01:41:45.738Z,100382.89
2019-01-27T01:43:18.950Z,100386.41
2019-01-27T01:44:52.853Z,100387.58
2019-01-27T01:46:26.861Z,100378.25
2019-01-27T01:48:01.785Z,100374.80
2019-01-27T01:49:35.807Z,100372.95
2019-01-27T01:51:09.576Z,100372.63
2019-01-27T01:52:43.284Z,100375.13
2019-01-27T01:54:17.274Z,100375.95
2019-01-27T01:55:51.991Z,100369.47
2019-01-27T01:57:25.964Z,100376.28
2019-01-27T01:58:59.997Z,100375.63
2019-01-27T02:00:36.795Z,100372.59
2019-01-27T02:02:10.689Z,100367.08
2019-01-27T02:03:44.701Z,100368.91
2019-01-27T02:05:18.382Z,100365.17
2019-01-27T02:06:52.150Z,100375.20
2019-01-27T02:08:26.432Z,100371.20
2019-01-27T02:10:00.233Z,100372.23
2019-01-27T02:11:34.286Z,100368.73
2019-01-27T02:13:08.143Z,100372.73
2019-01-27T02:14:42.232Z,100365.84
2019-01-27T02:16:25.438Z,100366.37
2019-01-27T02:17:59.350Z,100364.55
2019-01-27T02:19:33.382Z,100369.73
2019-01-27T02:21:07.716Z,100361.58
2019-01-27T02:22:41.720Z,100361.61
2019-01-27T02:24:15.647Z,100356.45
2019-01-27T02:25:49.654Z,100359.61
2019-01-27T02:27:23.958Z,100357.42
2019-01-27T02:28:58.167Z,100352.40
2019-01-27T02:30:33.224Z,100352.20
2019-01-27T02:32:07.330Z,100346.88
2019-01-27T02:33:41.559Z,100346.50
2019-01-27T02:35:15.404Z,100345.59
2019-01-27T02:36:49.425Z,100337.86
2019-01-27T02:38:23.247Z,100339.36
2019-01-27T02:39:57.557Z,100337.66
2019-01-27T02:41:31.679Z,100339.13
2019-01-27T02:43:05.838Z,100337.22
2019-01-27T02:44:38.854Z,100332.16
2019-01-27T02:46:12.884Z,100328.87
2019-01-27T02:47:46.748Z,100332.46
2019-01-27T02:49:20.552Z,100335.07
2019-01-27T02:50:54.336Z,100333.72
2019-01-27T02:52:29.579Z,100325.94
2019-01-27T02:54:04.176Z,100330.25
2019-01-27T02:55:38.603Z,100323.30
2019-01-27T02:57:12.510Z,100320.56
2019-01-27T02:58:46.534Z,100326.25
2019-01-27T03:00:21.454Z,100325.05
2019-01-27T03:01:55.358Z,100317.30
2019-01-27T03:03:29.444Z,100317.63
2019-01-27T03:05:03.680Z,100317.84
2019-01-27T03:06:44.943Z,100310.53
2019-01-27T03:08:18.818Z,100306.43
2019-01-27T03:09:53.761Z,100309.88
2019-01-27T03:11:27.664Z,100310.51
2019-01-27T03:13:01.667Z,100302.25
2019-01-27T03:14:36.693Z,100299.76
2019-01-27T03:16:10.622Z,100296.09
2019-01-27T03:17:44.557Z,100291.79
2019-01-27T03:19:18.909Z,100296.77
2019-01-27T03:20:53.045Z,100293.02
2019-01-27T03:22:26.755Z,100294.70
2019-01-27T03:24:00.722Z,100297.42
2019-01-27T03:25:35.948Z,100293.61
2019-01-27T03:27:10.070Z,100293.44
2019-01-27T03:28:43.807Z,100286.54
2019-01-27T03:30:17.971Z,100291.86
2019-01-27T03:31:52.212Z,100282.89
2019-01-27T03:33:25.999Z,100284.30
2019-01-27T03:35:00.271Z,100281.65
2019-01-27T03:36:34.171Z,100281.44
2019-01-27T03:38:08.406Z,100283.10
2019-01-27T03:39:42.715Z,100280.32
2019-01-27T03:41:17.674Z,100280.94
2019-01-27T03:42:51.364Z,100277.52
2019-01-27T03:44:26.366Z,100277.43
2019-01-27T03:46:00.502Z,100279.91
2019-01-27T03:47:34.816Z,100267.91
2019-01-27T03:49:08.777Z,100269.64
2019-01-27T03:50:43.661Z,100265.14
2019-01-27T03:52:17.613Z,100270.22
2019-01-27T03:53:51.754Z,100274.02
2019-01-27T03:55:27.884Z,100271.37
2019-01-27T03:57:01.792Z,100276.80
2019-01-27T03:58:35.484Z,100275.69
2019-01-27T04:00:09.521Z,100270.79
2019-01-27T04:01:42.361Z,100271.28
2019-01-27T04:03:16.254Z,100272.48
2019-01-27T04:04:50.201Z,100274.64
2019-01-27T04:06:23.882Z,100270.30
2019-01-27T04:07:57.837Z,100276.20
2019-01-27T04:09:32.748Z,100274.67
2019-01-27T04:11:06.723Z,100271.55
2019-01-27T04:12:40.743Z,100267.72
2019-01-27T04:14:14.648Z,100269.39
2019-01-27T04:15:48.748Z,100265.09
2019-01-27T04:17:22.642Z,100261.00
2019-01-27T04:18:57.799Z,100259.91
2019-01-27T04:20:35.471Z,100261.13
2019-01-27T04:22:09.468Z,100257.37
2019-01-27T04:23:43.314Z,100264.58
2019-01-27T04:25:17.193Z,100260.78
2019-01-27T04:26:50.974Z,100261.00
2019-01-27T04:28:24.733Z,100263.87
2019-01-27T04:29:58.570Z,100259.89
2019-01-27T04:31:32.767Z,100260.27
2019-01-27T04:33:07.126Z,100261.59
2019-01-27T04:34:41.170Z,100260.72
2019-01-27T04:36:15.188Z,100259.73
2019-01-27T04:37:48.994Z,100262.17
2019-01-27T04:39:25.133Z,100259.51
2019-01-27T04:40:58.960Z,100254.80
2019-01-27T04:42:31.738Z,100257.65
2019-01-27T04:44:05.726Z,100258.59
2019-01-27T04:45:42.459Z,100259.08
2019-01-27T04:47:16.534Z,100260.33
2019-01-27T04:48:50.622Z,100264.66
2019-01-27T04:50:26.509Z,100265.22
2019-01-27T04:52:00.652Z,100269.39
2019-01-27T04:53:34.742Z,100268.81
2019-01-27T04:55:08.813Z,100270.38
2019-01-27T04:56:42.795Z,100268.58
2019-01-27T04:58:16.773Z,100265.84
2019-01-27T04:59:50.696Z,100260.68
2019-01-27T05:01:24.908Z,100272.84
2019-01-27T05:03:03.682Z,100258.19
2019-01-27T05:04:42.047Z,100268.91
2019-01-27T05:06:15.921Z,100269.11
2019-01-27T05:07:49.700Z,100267.57
2019-01-27T05:09:23.761Z,100266.73
2019-01-27T05:10:57.390Z,100265.52
2019-01-27T05:12:31.178Z,100267.27
2019-01-27T05:14:05.220Z,100262.95
2019-01-27T05:15:40.100Z,100259.52
2019-01-27T05:17:14.077Z,100261.75
2019-01-27T05:18:47.901Z,100260.28
2019-01-27T05:20:23.006Z,100260.13
2019-01-27T05:21:57.080Z,100255.13
2019-01-27T05:23:31.113Z,100254.52
2019-01-27T05:25:05.016Z,100259.70
2019-01-27T05:26:38.818Z,100254.63
2019-01-27T05:28:13.562Z,100252.86
2019-01-27T05:29:47.605Z,100257.97
2019-01-27T05:31:21.566Z,100260.02
2019-01-27T05:32:56.254Z,100258.77
2019-01-27T05:34:30.031Z,100258.08
2019-01-27T05:36:03.936Z,100255.13
2019-01-27T05:37:37.623Z,100257.05
2019-01-27T05:39:11.679Z,100254.48
2019-01-27T05:40:45.776Z,100253.46
2019-01-27T05:42:20.166Z,100248.47
2019-01-27T05:43:54.046Z,100246.98
2019-01-27T05:45:30.318Z,100252.89
2019-01-27T05:47:04.432Z,100259.02
2019-01-27T05:48:38.541Z,100254.62
2019-01-27T05:50:12.332Z,100251.81
2019-01-27T05:51:46.396Z,100251.08
2019-01-27T05:53:21.500Z,100245.58
2019-01-27T05:54:56.507Z,100247.20
2019-01-27T05:56:30.612Z,100248.78
2019-01-27T05:58:04.545Z,100242.53
2019-01-27T05:59:39.582Z,100242.97
2019-01-27T06:01:13.468Z,100248.34
2019-01-27T06:02:47.484Z,100239.49
2019-01-27T06:04:21.682Z,100242.52
2019-01-27T06:05:56.377Z,100239.46
2019-01-27T06:07:30.169Z,100242.67
2019-01-27T06:09:04.496Z,100238.09
2019-01-27T06:10:38.523Z,100236.15
2019-01-27T06:12:12.497Z,100239.20
2019-01-27T06:13:46.532Z,100234.82
2019-01-27T06:15:21.530Z,100232.17
2019-01-27T06:16:55.744Z,100227.09
2019-01-27T06:18:30.046Z,100229.25
2019-01-27T06:20:04.051Z,100226.60
2019-01-27T06:21:37.960Z,100225.83
2019-01-27T06:23:12.084Z,100228.11
2019-01-27T06:24:45.877Z,100223.55
2019-01-27T06:26:19.899Z,100219.75
2019-01-27T06:27:53.686Z,100227.17
2019-01-27T06:29:27.510Z,100224.63
2019-01-27T06:31:01.402Z,100223.98
2019-01-27T06:32:40.426Z,100228.94
2019-01-27T06:34:17.296Z,100217.66
2019-01-27T06:35:50.890Z,100223.78
2019-01-27T06:37:25.072Z,100230.40
2019-01-27T06:38:58.873Z,100224.24
2019-01-27T06:40:32.991Z,100224.55
2019-01-27T06:42:07.368Z,100219.36
2019-01-27T06:43:41.711Z,100220.41
2019-01-27T06:45:16.640Z,100217.08
2019-01-27T06:46:50.365Z,100219.02
2019-01-27T06:48:24.194Z,100219.34
2019-01-27T06:49:58.061Z,100211.48
2019-01-27T06:51:32.128Z,100204.52
2019-01-27T06:53:06.170Z,100208.98
2019-01-27T06:54:39.152Z,100208.88
2019-01-27T06:56:13.259Z,100210.69
2019-01-27T06:57:47.383Z,100210.43
2019-01-27T06:59:28.323Z,100210.73
2019-01-27T07:01:21.495Z,100207.70
2019-01-27T07:02:59.134Z,100209.22
2019-01-27T07:04:48.241Z,100208.95
2019-01-27T07:06:27.423Z,100203.03
2019-01-27T07:08:09.515Z,100207.17
2019-01-27T07:11:53.900Z,100215.97
2019-01-27T07:13:33.249Z,100218.97
2019-01-27T07:15:11.922Z,100217.09
2019-01-27T07:16:50.999Z,100218.45
2019-01-27T07:18:30.195Z,100220.47
2019-01-27T07:20:08.216Z,100212.77
2019-01-27T07:21:46.313Z,100215.23
2019-01-27T07:23:30.659Z,100215.69
2019-01-27T07:25:09.868Z,100215.66
2019-01-27T07:26:55.257Z,100209.78
2019-01-27T07:28:38.556Z,100212.05
2019-01-27T07:30:17.608Z,100207.02
2019-01-27T07:31:58.542Z,100206.51
2019-01-27T07:33:37.669Z,100206.70
2019-01-27T07:35:20.593Z,100203.96
2019-01-27T07:37:04.835Z,100208.21
2019-01-27T07:39:45.726Z,100203.63
2019-01-27T07:42:24.622Z,100205.50
2019-01-27T07:44:09.591Z,100209.11
2019-01-27T07:45:50.844Z,100206.49
2019-01-27T07:48:28.189Z,100202.92
2019-01-27T07:52:15.011Z,100207.14
2019-01-27T07:53:56.752Z,100208.08
2019-01-27T07:55:39.804Z,100207.61
2019-01-27T07:57:18.758Z,100207.95
2019-01-27T07:58:57.847Z,100209.42
2019-01-27T08:00:41.148Z,100204.68
2019-01-27T08:02:23.166Z,100208.41
2019-01-27T08:04:01.025Z,100203.27
2019-01-27T08:05:41.004Z,100207.61
2019-01-27T08:07:35.811Z,100205.61
2019-01-27T08:09:13.633Z,100203.35
2019-01-27T08:12:56.770Z,100199.06
2019-01-27T08:15:08.207Z,100198.66
2019-01-27T08:16:53.166Z,100199.06
2019-01-27T08:18:47.419Z,100193.58
2019-01-27T08:20:30.464Z,100199.63
2019-01-27T08:23:07.432Z,100204.86
2019-01-27T08:24:49.415Z,100205.58
2019-01-27T08:26:31.406Z,100201.05
2019-01-27T08:28:19.529Z,100197.53
2019-01-27T08:29:57.978Z,100195.40
2019-01-27T08:32:07.446Z,100197.41
2019-01-27T08:34:51.666Z,100197.62
2019-01-27T08:36:35.868Z,100190.65
2019-01-27T08:38:15.846Z,100186.95
2019-01-27T08:39:53.537Z,100182.69
2019-01-27T08:41:37.846Z,100188.73
2019-01-27T08:43:18.921Z,100180.78
2019-01-27T08:44:58.859Z,100178.78
2019-01-27T08:46:38.846Z,100187.00
2019-01-27T08:48:13.572Z,100183.77
2019-01-27T08:49:47.498Z,100183.09
2019-01-27T08:51:22.577Z,100178.17
2019-01-27T08:52:56.603Z,100175.77
2019-01-27T08:54:30.611Z,100174.89
2019-01-27T08:56:04.792Z,100181.06
2019-01-27T08:57:38.620Z,100181.62
2019-01-27T08:59:12.635Z,100180.91
2019-01-27T09:00:48.571Z,100178.53
2019-01-27T09:02:27.776Z,100177.36
2019-01-27T09:04:05.562Z,100174.29
2019-01-27T09:05:44.518Z,100179.52
2019-01-27T09:08:23.342Z,100170.97
2019-01-27T09:10:59.389Z,100175.39
2019-01-27T09:12:36.576Z,100170.31
2019-01-27T09:15:15.302Z,100165.44
2019-01-27T09:17:12.941Z,100164.79
2019-01-27T09:18:56.900Z,100163.20
2019-01-27T09:20:41.666Z,100164.06
2019-01-27T09:24:25.727Z,100151.83
2019-01-27T09:27:03.620Z,100153.25
2019-01-27T09:28:43.760Z,100153.12
2019-01-27T09:30:21.656Z,100150.34
2019-01-27T09:34:05.611Z,100150.31
2019-01-27T09:35:51.683Z,100150.22
2019-01-27T09:37:30.700Z,100146.86
2019-01-27T09:39:13.820Z,100147.58
2019-01-27T09:40:54.210Z,100146.63
2019-01-27T09:42:39.399Z,100139.25
2019-01-27T09:44:18.770Z,100148.89
2019-01-27T09:46:05.054Z,100149.97
2019-01-27T09:47:36.219Z,100139.75
2019-01-27T09:49:16.447Z,100145.31
2019-01-27T09:50:56.635Z,100141.56
2019-01-27T09:52:41.583Z,100141.41
2019-01-27T09:54:20.302Z,100140.09
2019-01-27T09:56:00.112Z,100140.43
2019-01-27T09:57:38.775Z,100139.33
2019-01-27T10:00:15.610Z,100135.06
2019-01-27T10:02:08.784Z,100131.80
2019-01-27T10:03:46.745Z,100133.84
2019-01-27T10:05:28.669Z,100126.89
2019-01-27T10:07:07.874Z,100120.73
2019-01-27T10:08:55.962Z,100120.80
2019-01-27T10:10:34.858Z,100124.89
2019-01-27T10:12:13.772Z,100128.45
2019-01-27T10:15:55.103Z,100124.20
2019-01-27T10:17:33.829Z,100119.55
2019-01-27T10:19:14.334Z,100117.36
2019-01-27T10:21:54.065Z,100112.25
2019-01-27T10:23:35.160Z,100116.38
2019-01-27T10:25:17.245Z,100116.03
2019-01-27T10:26:56.059Z,100115.28
2019-01-27T10:28:36.906Z,100114.03
2019-01-27T10:30:15.773Z,100115.28
2019-01-27T10:32:09.081Z,100114.14
2019-01-27T10:33:52.231Z,100109.00
2019-01-27T10:35:31.663Z,100105.59
2019-01-27T10:37:14.883Z,100107.50
2019-01-27T10:38:53.716Z,100109.64
2019-01-27T10:41:03.137Z,100102.30
2019-01-27T10:42:42.295Z,100100.94
2019-01-27T10:44:22.849Z,100099.73
2019-01-27T10:46:59.794Z,100089.90
2019-01-27T10:48:39.944Z,100095.31
2019-01-27T10:50:18.045Z,100090.58
2019-01-27T10:52:01.308Z,100085.97
2019-01-27T10:53:44.381Z,100082.53
2019-01-27T10:55:22.175Z,100084.84
2019-01-27T10:57:15.950Z,100087.98
2019-01-27T10:59:26.889Z,100080.80
2019-01-27T11:01:05.284Z,100082.65
2019-01-27T11:02:44.223Z,100077.28
2019-01-27T11:04:32.661Z,100074.67
2019-01-27T11:06:12.631Z,100076.21
2019-01-27T11:07:52.678Z,100076.83
2019-01-27T11:09:40.915Z,100075.23
2019-01-27T11:11:20.009Z,100078.45
2019-01-27T11:15:05.631Z,100081.48
2019-01-27T11:16:44.653Z,100072.28
2019-01-27T11:18:39.751Z,100069.29
2019-01-27T11:20:18.693Z,100061.76
2019-01-27T11:22:01.705Z,100069.55
2019-01-27T11:25:51.479Z,100066.59
2019-01-27T11:27:42.479Z,100059.55
2019-01-27T11:31:24.471Z,100060.84
2019-01-27T11:33:32.748Z,100052.42
2019-01-27T11:36:12.544Z,100046.04
2019-01-27T11:38:26.389Z,100050.08
2019-01-27T11:40:09.153Z,100051.06
2019-01-27T11:41:48.201Z,100046.11
2019-01-27T11:43:27.122Z,100042.30
2019-01-27T11:45:09.137Z,100039.77
2019-01-27T11:46:52.454Z,100034.63
2019-01-27T11:48:50.728Z,100032.04
2019-01-27T11:50:28.640Z,100034.13
2019-01-27T11:52:06.694Z,100030.16
2019-01-27T11:53:41.120Z,100028.80
2019-01-27T11:55:14.834Z,100027.81
2019-01-27T11:56:48.836Z,100024.71
2019-01-27T11:58:22.983Z,100019.91
2019-01-27T11:59:57.287Z,100022.38
2019-01-27T12:01:30.217Z,100013.36
2019-01-27T12:03:04.491Z,100018.56
2019-01-27T12:04:38.844Z,100013.70
2019-01-27T12:06:12.718Z,100019.16
2019-01-27T12:07:46.942Z,100008.31
2019-01-27T12:09:37.042Z,100014.31
2019-01-27T12:11:11.998Z,100008.31
2019-01-27T12:12:45.988Z,100003.72
2019-01-27T12:14:19.990Z,100006.37
2019-01-27T12:15:53.899Z,100004.92
2019-01-27T12:17:29.000Z,100000.89
2019-01-27T12:19:04.054Z,99999.07
2019-01-27T12:20:37.851Z,99999.75
2019-01-27T12:22:11.700Z,100004.70
2019-01-27T12:23:44.650Z,99996.39
2019-01-27T12:25:18.433Z,99999.32
2019-01-27T12:26:52.337Z,100001.38
2019-01-27T12:28:26.279Z,99993.13
2019-01-27T12:30:00.101Z,99997.59
2019-01-27T12:31:34.245Z,99991.19
2019-01-27T12:33:07.955Z,99987.98
2019-01-27T12:34:41.983Z,99982.90
2019-01-27T12:36:15.966Z,99990.53
2019-01-27T12:37:49.992Z,99986.88
2019-01-27T12:39:24.947Z,99982.50
2019-01-27T12:40:58.889Z,99975.70
2019-01-27T12:42:32.790Z,99976.81
2019-01-27T12:44:06.459Z,99982.42
2019-01-27T12:45:40.399Z,99980.70
2019-01-27T12:47:14.547Z,99979.44
2019-01-27T12:48:48.705Z,99981.77
2019-01-27T12:50:23.822Z,99982.39
2019-01-27T12:51:58.974Z,99975.89
2019-01-27T12:53:33.814Z,99981.19
2019-01-27T12:55:08.588Z,99973.80
2019-01-27T12:56:42.558Z,99981.44
2019-01-27T12:58:16.626Z,99976.78
2019-01-27T12:59:50.709Z,99974.29
2019-01-27T13:01:27.401Z,99973.30
2019-01-27T13:03:01.604Z,99973.45
2019-01-27T13:04:35.496Z,99970.81
2019-01-27T13:06:09.444Z,99981.44
2019-01-27T13:07:43.119Z,99973.63
2019-01-27T13:09:17.166Z,99972.48
2019-01-27T13:10:51.245Z,99961.63
2019-01-27T13:12:26.022Z,99966.61
2019-01-27T13:14:00.163Z,99965.39
2019-01-27T13:15:34.848Z,99961.88
2019-01-27T13:17:08.801Z,99959.42
2019-01-27T13:18:42.779Z,99957.94
2019-01-27T13:20:16.763Z,99957.11
2019-01-27T13:21:50.601Z,99962.25
2019-01-27T13:23:24.677Z,99952.30
2019-01-27T13:24:58.904Z,99954.70
2019-01-27T13:26:32.891Z,99953.03
2019-01-27T13:28:06.816Z,99954.92
2019-01-27T13:29:40.815Z,99954.28
2019-01-27T13:31:15.535Z,99950.61
2019-01-27T13:32:49.312Z,99950.61
2019-01-27T13:34:23.308Z,99945.63
2019-01-27T13:35:57.354Z,99947.19
2019-01-27T13:37:31.215Z,99939.06
2019-01-27T13:39:05.348Z,99930.19
2019-01-27T13:40:40.218Z,99932.70
2019-01-27T13:42:14.145Z,99929.28
2019-01-27T13:43:48.266Z,99930.11
2019-01-27T13:45:23.421Z,99937.45
2019-01-27T13:46:57.251Z,99943.77
2019-01-27T13:48:31.431Z,99940.94
2019-01-27T13:50:05.457Z,99939.61
2019-01-27T13:51:39.321Z,99935.92
2019-01-27T13:53:13.420Z,99943.61
2019-01-27T13:54:47.195Z,99936.23
2019-01-27T13:56:21.130Z,99936.72
2019-01-27T13:57:55.356Z,99932.14
2019-01-27T13:59:30.056Z,99935.96
2019-01-27T14:01:04.033Z,99931.81
2019-01-27T14:02:38.087Z,99932.77
2019-01-27T14:04:12.178Z,99928.19
2019-01-27T14:05:46.201Z,99930.34
2019-01-27T14:07:20.085Z,99928.41
2019-01-27T14:08:54.015Z,99928.59
2019-01-27T14:10:30.866Z,99923.99
2019-01-27T14:12:04.906Z,99923.05
2019-01-27T14:13:39.189Z,99926.86
2019-01-27T14:15:13.275Z,99920.91
2019-01-27T14:16:48.332Z,99919.97
2019-01-27T14:18:22.127Z,99919.47
2019-01-27T14:19:56.241Z,99918.16
2019-01-27T14:21:30.549Z,99917.00
2019-01-27T14:23:04.391Z,99916.33
2019-01-27T14:24:38.326Z,99915.89
2019-01-27T14:26:12.664Z,99914.95
2019-01-27T14:27:47.404Z,99919.98
2019-01-27T14:29:21.217Z,99909.70
2019-01-27T14:30:58.058Z,99910.37
2019-01-27T14:32:32.061Z,99906.02
2019-01-27T14:34:05.987Z,99911.31
2019-01-27T14:35:40.053Z,99906.00
2019-01-27T14:37:14.077Z,99908.53
2019-01-27T14:38:48.118Z,99913.69
2019-01-27T14:40:22.672Z,99911.69
2019-01-27T14:41:56.552Z,99907.05
2019-01-27T14:43:30.588Z,99904.39
2019-01-27T14:45:04.398Z,99902.73
2019-01-27T14:46:38.284Z,99905.19
2019-01-27T14:48:13.277Z,99903.85
2019-01-27T14:49:47.343Z,99896.34
2019-01-27T14:51:21.490Z,99907.28
2019-01-27T14:52:56.373Z,99907.95
2019-01-27T14:54:30.481Z,99904.02
2019-01-27T14:56:03.464Z,99905.34
2019-01-27T14:57:37.481Z,99906.62
2019-01-27T14:59:11.235Z,99913.58
2019-01-27T15:00:48.278Z,99899.27
2019-01-27T15:02:21.427Z,99906.84
2019-01-27T15:03:55.307Z,99910.80
2019-01-27T15:05:30.293Z,99913.25
2019-01-27T15:07:05.185Z,99911.48
2019-01-27T15:08:39.520Z,99913.80
2019-01-27T15:10:14.629Z,99910.10
2019-01-27T15:11:50.505Z,99911.09
2019-01-27T15:13:25.416Z,99911.41
2019-01-27T15:14:59.924Z,99909.55
2019-01-27T15:16:34.549Z,99906.88
2019-01-27T15:18:08.760Z,99903.31
2019-01-27T15:19:42.961Z,99905.00
2019-01-27T15:21:23.699Z,99902.42
2019-01-27T15:22:57.625Z,99901.86
2019-01-27T15:24:31.934Z,99902.19
2019-01-27T15:26:07.888Z,99897.84
2019-01-27T15:27:41.683Z,99898.17
2019-01-27T15:29:15.899Z,99892.53
2019-01-27T15:30:52.254Z,99898.22
2019-01-27T15:32:26.424Z,99892.14
2019-01-27T15:34:02.008Z,99882.48
2019-01-27T15:35:36.119Z,99883.31
2019-01-27T15:37:10.298Z,99881.83
2019-01-27T15:38:44.335Z,99879.05
2019-01-27T15:40:18.223Z,99875.92
2019-01-27T15:41:53.357Z,99875.92
2019-01-27T15:43:29.651Z,99867.30
2019-01-27T15:45:03.820Z,99873.43
2019-01-27T15:46:38.879Z,99875.91
2019-01-27T15:48:12.915Z,99874.74
2019-01-27T15:49:47.138Z,99876.73
2019-01-27T15:51:21.125Z,99866.80
2019-01-27T15:52:55.280Z,99862.25
2019-01-27T15:54:30.934Z,99864.69
2019-01-27T15:56:05.696Z,99863.24
2019-01-27T15:57:39.695Z,99857.60
2019-01-27T15:59:14.375Z,99857.11
2019-01-27T16:00:49.402Z,99855.45
2019-01-27T16:02:24.585Z,99859.27
2019-01-27T16:03:58.493Z,99855.61
2019-01-27T16:05:35.263Z,99868.55
2019-01-27T16:07:09.106Z,99860.92
2019-01-27T16:08:43.193Z,99862.08
2019-01-27T16:10:17.743Z,99859.88
2019-01-27T16:11:52.529Z,99858.52
2019-01-27T16:13:26.440Z,99854.41
2019-01-27T16:15:00.424Z,99852.92
2019-01-27T16:16:34.553Z,99859.22
2019-01-27T16:18:09.540Z,99849.94
2019-01-27T16:19:44.202Z,99850.61
2019-01-27T16:21:18.431Z,99846.13
2019-01-27T16:22:55.502Z,99850.61
2019-01-27T16:24:35.340Z,99849.61
2019-01-27T16:26:09.244Z,99843.56
2019-01-27T16:27:43.047Z,99846.74
2019-01-27T16:29:17.239Z,99839.71
2019-01-27T16:30:58.059Z,99834.11
2019-01-27T16:32:35.333Z,99830.80
2019-01-27T16:34:14.631Z,99837.00
2019-01-27T16:35:49.454Z,99831.22
2019-01-27T16:37:22.741Z,99831.72
2019-01-27T16:38:56.628Z,99830.53
2019-01-27T16:40:32.783Z,99823.89
2019-01-27T16:42:07.116Z,99820.61
2019-01-27T16:43:41.044Z,99822.57
2019-01-27T16:45:15.123Z,99816.73
2019-01-27T16:46:49.438Z,99818.92
2019-01-27T16:48:23.574Z,99817.56
2019-01-27T16:49:57.531Z,99813.59
2019-01-27T16:51:31.965Z,99817.89
2019-01-27T16:53:06.057Z,99812.27
2019-01-27T16:54:40.048Z,99821.55
2019-01-27T16:56:14.360Z,99811.93
2019-01-27T16:57:48.156Z,99817.23
2019-01-27T16:59:22.546Z,99804.97
2019-01-27T17:00:56.285Z,99809.44
2019-01-27T17:02:31.217Z,99806.66
2019-01-27T17:04:06.452Z,99809.47
2019-01-27T17:05:41.494Z,99807.64
2019-01-27T17:07:16.404Z,99802.53
2019-01-27T17:08:50.349Z,99801.02
2019-01-27T17:10:26.156Z,99802.34
2019-01-27T17:11:59.957Z,99797.72
2019-01-27T17:13:33.657Z,99795.23
2019-01-27T17:15:07.775Z,99793.39
2019-01-27T17:16:41.636Z,99789.93
2019-01-27T17:18:14.960Z,99792.72
2019-01-27T17:19:49.048Z,99792.75
2019-01-27T17:21:23.061Z,99785.09
2019-01-27T17:22:55.884Z,99788.11
2019-01-27T17:24:30.029Z,99795.08
2019-01-27T17:26:03.822Z,99789.58
2019-01-27T17:27:37.770Z,99790.41
2019-01-27T17:29:11.752Z,99784.09
2019-01-27T17:30:45.765Z,99790.88
2019-01-27T17:32:22.030Z,99786.06
2019-01-27T17:33:55.986Z,99781.28
2019-01-27T17:35:31.148Z,99791.73
2019-01-27T17:37:05.064Z,99783.44
2019-01-27T17:38:40.520Z,99780.45
2019-01-27T17:40:12.347Z,99784.62
2019-01-27T17:41:46.224Z,99785.45
2019-01-27T17:43:20.016Z,99783.47
2019-01-27T17:44:54.138Z,99788.77
2019-01-27T17:46:29.169Z,99785.45
2019-01-27T17:48:03.294Z,99782.30
2019-01-27T17:49:37.043Z,99778.81
2019-01-27T17:51:10.869Z,99781.81
2019-01-27T17:52:44.697Z,99778.03
2019-01-27T17:54:18.827Z,99772.52
2019-01-27T17:55:53.217Z,99775.03
2019-01-27T17:57:32.132Z,99775.33
2019-01-27T17:59:11.631Z,99774.34
2019-01-27T18:00:50.250Z,99774.22
2019-01-27T18:02:34.523Z,99768.23
2019-01-27T18:04:16.583Z,99777.17
2019-01-27T18:06:01.998Z,99770.88
2019-01-27T18:08:12.555Z,99770.55
2019-01-27T18:09:50.745Z,99773.37
2019-01-27T18:11:44.096Z,99774.85
2019-01-27T18:13:37.708Z,99767.89
2019-01-27T18:15:11.766Z,99762.58
2019-01-27T18:16:45.662Z,99770.05
2019-01-27T18:18:19.698Z,99770.23
2019-01-27T18:19:53.544Z,99768.72
2019-01-27T18:21:27.480Z,99763.27
2019-01-27T18:23:02.079Z,99766.41
2019-01-27T18:24:35.595Z,99763.25
2019-01-27T18:26:09.632Z,99766.58
2019-01-27T18:27:43.407Z,99761.77
2019-01-27T18:29:17.504Z,99767.59
2019-01-27T18:30:51.221Z,99769.91
2019-01-27T18:32:26.246Z,99768.06
2019-01-27T18:34:00.558Z,99768.92
2019-01-27T18:35:34.364Z,99762.94
2019-01-27T18:37:08.160Z,99766.73
2019-01-27T18:38:42.129Z,99759.80
2019-01-27T18:40:16.087Z,99766.43
2019-01-27T18:41:50.885Z,99763.77
2019-01-27T18:43:24.895Z,99765.09
2019-01-27T18:44:58.930Z,99768.41
2019-01-27T18:46:35.166Z,99771.09
2019-01-27T18:48:10.045Z,99768.44
2019-01-27T18:49:43.987Z,99770.60
2019-01-27T18:51:17.902Z,99766.13
2019-01-27T18:52:52.200Z,99763.97
2019-01-27T18:55:31.402Z,99761.62
2019-01-27T18:57:09.745Z,99774.23
2019-01-27T18:58:48.356Z,99762.95
2019-01-27T19:00:35.544Z,99756.64
2019-01-27T19:02:13.479Z,99760.31
2019-01-27T19:03:52.390Z,99759.30